sensor_id;sensor_type;location;lat;lon;timestamp;temperature;humidity
17348;DHT22;8791;50.876;4.342;2023-02-28T00:01:18;2.60;99.90
17348;DHT22;8791;50.876;4.342;2023-02-28T00:03:45;2.60;99.90
17348;DHT22;8791;50.876;4.342;2023-02-28T00:06:12;2.50;99.90
17348;DHT22;8791;50.876;4.342;2023-02-28T00:08:40;2.30;99.90
17348;DHT22;8791;50.876;4.342;2023-02-28T00:11:09;2.10;99.90
17348;DHT22;8791;50.876;4.342;2023-02-28T00:13:37;2.00;99.90
17348;DHT22;8791;50.876;4.342;2023-02-28T00:16:06;2.10;99.90
17348;DHT22;8791;50.876;4.342;2023-02-28T00:18:34;2.20;99.90
17348;DHT22;8791;50.876;4.342;2023-02-28T00:21:01;2.10;99.90
17348;DHT22;8791;50.876;4.342;2023-02-28T00:23:28;1.90;99.90
17348;DHT22;8791;50.876;4.342;2023-02-28T00:25:56;1.80;99.90
17348;DHT22;8791;50.876;4.342;2023-02-28T00:28:23;1.90;99.90
17348;DHT22;8791;50.876;4.342;2023-02-28T00:30:50;2.00;99.90
17348;DHT22;8791;50.876;4.342;2023-02-28T00:33:17;2.00;99.90
17348;DHT22;8791;50.876;4.342;2023-02-28T00:35:44;2.00;99.90
17348;DHT22;8791;50.876;4.342;2023-02-28T00:38:12;1.90;99.90
17348;DHT22;8791;50.876;4.342;2023-02-28T00:40:39;1.90;99.90
17348;DHT22;8791;50.876;4.342;2023-02-28T00:43:07;1.90;99.90
17348;DHT22;8791;50.876;4.342;2023-02-28T00:45:34;1.80;99.90
17348;DHT22;8791;50.876;4.342;2023-02-28T00:48:01;1.80;99.90
17348;DHT22;8791;50.876;4.342;2023-02-28T00:50:28;1.90;99.90
17348;DHT22;8791;50.876;4.342;2023-02-28T00:52:55;1.90;99.90
17348;DHT22;8791;50.876;4.342;2023-02-28T00:55:21;1.70;99.90
17348;DHT22;8791;50.876;4.342;2023-02-28T00:57:48;1.70;99.90
17348;DHT22;8791;50.876;4.342;2023-02-28T01:00:17;1.70;99.90
17348;DHT22;8791;50.876;4.342;2023-02-28T01:02:44;1.80;99.90
17348;DHT22;8791;50.876;4.342;2023-02-28T01:05:11;1.90;99.90
17348;DHT22;8791;50.876;4.342;2023-02-28T01:07:38;2.00;99.90
17348;DHT22;8791;50.876;4.342;2023-02-28T01:10:05;2.00;99.90
17348;DHT22;8791;50.876;4.342;2023-02-28T01:12:32;2.10;99.90
17348;DHT22;8791;50.876;4.342;2023-02-28T01:14:59;2.10;99.90
17348;DHT22;8791;50.876;4.342;2023-02-28T01:17:27;2.10;99.90
17348;DHT22;8791;50.876;4.342;2023-02-28T01:19:54;2.00;99.90
17348;DHT22;8791;50.876;4.342;2023-02-28T01:22:21;1.90;99.90
17348;DHT22;8791;50.876;4.342;2023-02-28T01:24:48;1.90;99.90
17348;DHT22;8791;50.876;4.342;2023-02-28T01:27:15;1.80;99.90
17348;DHT22;8791;50.876;4.342;2023-02-28T01:29:42;1.80;99.90
17348;DHT22;8791;50.876;4.342;2023-02-28T01:32:08;2.00;99.90
17348;DHT22;8791;50.876;4.342;2023-02-28T01:34:37;1.90;99.90
17348;DHT22;8791;50.876;4.342;2023-02-28T01:37:03;1.80;99.90
17348;DHT22;8791;50.876;4.342;2023-02-28T01:39:30;1.70;99.90
17348;DHT22;8791;50.876;4.342;2023-02-28T01:41:57;1.70;99.90
17348;DHT22;8791;50.876;4.342;2023-02-28T01:45:00;1.50;99.90
17348;DHT22;8791;50.876;4.342;2023-02-28T01:47:30;1.40;99.90
17348;DHT22;8791;50.876;4.342;2023-02-28T01:50:01;1.50;99.90
17348;DHT22;8791;50.876;4.342;2023-02-28T01:52:29;1.60;99.90
17348;DHT22;8791;50.876;4.342;2023-02-28T01:54:58;1.40;99.90
17348;DHT22;8791;50.876;4.342;2023-02-28T01:57:29;1.40;99.90
17348;DHT22;8791;50.876;4.342;2023-02-28T02:00:06;1.40;99.90
17348;DHT22;8791;50.876;4.342;2023-02-28T02:02:36;1.30;99.90
17348;DHT22;8791;50.876;4.342;2023-02-28T02:05:08;1.30;99.90
17348;DHT22;8791;50.876;4.342;2023-02-28T02:07:37;1.40;99.90
17348;DHT22;8791;50.876;4.342;2023-02-28T02:10:07;1.50;99.90
17348;DHT22;8791;50.876;4.342;2023-02-28T02:15:30;1.40;99.90
17348;DHT22;8791;50.876;4.342;2023-02-28T02:18:03;1.30;99.90
17348;DHT22;8791;50.876;4.342;2023-02-28T02:20:52;1.30;99.90
17348;DHT22;8791;50.876;4.342;2023-02-28T02:26:35;1.50;99.90
17348;DHT22;8791;50.876;4.342;2023-02-28T02:29:40;1.50;99.90
17348;DHT22;8791;50.876;4.342;2023-02-28T02:32:28;1.50;99.90
17348;DHT22;8791;50.876;4.342;2023-02-28T02:35:10;1.80;99.90
17348;DHT22;8791;50.876;4.342;2023-02-28T02:37:43;1.60;99.90
17348;DHT22;8791;50.876;4.342;2023-02-28T02:40:18;1.50;99.90
17348;DHT22;8791;50.876;4.342;2023-02-28T02:42:51;1.50;99.90
17348;DHT22;8791;50.876;4.342;2023-02-28T02:45:25;1.50;99.90
17348;DHT22;8791;50.876;4.342;2023-02-28T02:47:54;1.50;99.90
17348;DHT22;8791;50.876;4.342;2023-02-28T02:50:26;1.50;99.90
17348;DHT22;8791;50.876;4.342;2023-02-28T02:52:57;1.40;99.90
17348;DHT22;8791;50.876;4.342;2023-02-28T02:55:26;1.50;99.90
17348;DHT22;8791;50.876;4.342;2023-02-28T02:57:57;1.50;99.90
17348;DHT22;8791;50.876;4.342;2023-02-28T03:00:30;1.50;99.90
17348;DHT22;8791;50.876;4.342;2023-02-28T03:03:00;1.50;99.90
17348;DHT22;8791;50.876;4.342;2023-02-28T03:05:32;1.50;99.90
17348;DHT22;8791;50.876;4.342;2023-02-28T03:08:03;1.50;99.90
17348;DHT22;8791;50.876;4.342;2023-02-28T03:10:36;1.50;99.90
17348;DHT22;8791;50.876;4.342;2023-02-28T03:13:15;1.50;99.90
17348;DHT22;8791;50.876;4.342;2023-02-28T03:15:55;1.40;99.90
17348;DHT22;8791;50.876;4.342;2023-02-28T03:18:30;1.40;99.90
17348;DHT22;8791;50.876;4.342;2023-02-28T03:21:04;1.30;99.90
17348;DHT22;8791;50.876;4.342;2023-02-28T03:23:41;1.40;99.90
17348;DHT22;8791;50.876;4.342;2023-02-28T03:26:13;1.30;99.90
17348;DHT22;8791;50.876;4.342;2023-02-28T03:28:51;1.30;99.90
17348;DHT22;8791;50.876;4.342;2023-02-28T03:31:23;1.20;99.90
17348;DHT22;8791;50.876;4.342;2023-02-28T03:33:57;1.20;99.90
17348;DHT22;8791;50.876;4.342;2023-02-28T03:36:29;1.00;99.90
17348;DHT22;8791;50.876;4.342;2023-02-28T03:38:59;1.00;99.90
17348;DHT22;8791;50.876;4.342;2023-02-28T03:41:31;1.10;99.90
17348;DHT22;8791;50.876;4.342;2023-02-28T03:44:03;1.10;99.90
17348;DHT22;8791;50.876;4.342;2023-02-28T03:46:34;1.00;99.90
17348;DHT22;8791;50.876;4.342;2023-02-28T03:49:05;1.00;99.90
17348;DHT22;8791;50.876;4.342;2023-02-28T03:51:36;1.00;99.90
17348;DHT22;8791;50.876;4.342;2023-02-28T03:54:07;1.00;99.90
17348;DHT22;8791;50.876;4.342;2023-02-28T03:56:38;1.10;99.90
17348;DHT22;8791;50.876;4.342;2023-02-28T03:59:12;1.00;99.90
17348;DHT22;8791;50.876;4.342;2023-02-28T04:01:42;1.00;99.90
17348;DHT22;8791;50.876;4.342;2023-02-28T04:04:10;1.10;99.90
17348;DHT22;8791;50.876;4.342;2023-02-28T04:06:39;1.00;99.90
17348;DHT22;8791;50.876;4.342;2023-02-28T04:09:07;1.00;99.90
17348;DHT22;8791;50.876;4.342;2023-02-28T04:11:36;1.00;99.90
17348;DHT22;8791;50.876;4.342;2023-02-28T04:14:03;0.90;99.90
17348;DHT22;8791;50.876;4.342;2023-02-28T04:16:32;0.90;99.90
17348;DHT22;8791;50.876;4.342;2023-02-28T04:18:59;1.00;99.90
17348;DHT22;8791;50.876;4.342;2023-02-28T04:21:28;0.90;99.90
17348;DHT22;8791;50.876;4.342;2023-02-28T04:23:56;0.70;99.90
17348;DHT22;8791;50.876;4.342;2023-02-28T04:26:28;0.80;99.90
17348;DHT22;8791;50.876;4.342;2023-02-28T04:28:56;0.90;99.90
17348;DHT22;8791;50.876;4.342;2023-02-28T04:31:23;0.90;99.90
17348;DHT22;8791;50.876;4.342;2023-02-28T04:33:49;0.90;99.90
17348;DHT22;8791;50.876;4.342;2023-02-28T04:36:17;0.90;99.90
17348;DHT22;8791;50.876;4.342;2023-02-28T04:38:45;0.90;99.90
17348;DHT22;8791;50.876;4.342;2023-02-28T04:41:14;1.00;99.90
17348;DHT22;8791;50.876;4.342;2023-02-28T04:43:51;1.10;99.90
17348;DHT22;8791;50.876;4.342;2023-02-28T04:46:18;1.20;99.90
17348;DHT22;8791;50.876;4.342;2023-02-28T04:48:49;1.10;99.90
17348;DHT22;8791;50.876;4.342;2023-02-28T04:51:17;0.90;99.90
17348;DHT22;8791;50.876;4.342;2023-02-28T04:53:47;0.80;99.90
17348;DHT22;8791;50.876;4.342;2023-02-28T04:56:23;1.00;99.90
17348;DHT22;8791;50.876;4.342;2023-02-28T04:58:50;0.80;99.90
17348;DHT22;8791;50.876;4.342;2023-02-28T05:01:21;0.80;99.90
17348;DHT22;8791;50.876;4.342;2023-02-28T05:03:49;0.80;99.90
17348;DHT22;8791;50.876;4.342;2023-02-28T05:06:16;1.00;99.90
17348;DHT22;8791;50.876;4.342;2023-02-28T05:08:43;1.00;99.90
17348;DHT22;8791;50.876;4.342;2023-02-28T05:11:15;1.10;99.90
17348;DHT22;8791;50.876;4.342;2023-02-28T05:13:44;0.80;99.90
17348;DHT22;8791;50.876;4.342;2023-02-28T05:16:11;0.70;99.90
17348;DHT22;8791;50.876;4.342;2023-02-28T05:18:38;0.60;99.90
17348;DHT22;8791;50.876;4.342;2023-02-28T05:21:05;0.70;99.90
17348;DHT22;8791;50.876;4.342;2023-02-28T05:23:32;0.90;99.90
17348;DHT22;8791;50.876;4.342;2023-02-28T05:25:59;0.90;99.90
17348;DHT22;8791;50.876;4.342;2023-02-28T05:28:25;1.10;99.90
17348;DHT22;8791;50.876;4.342;2023-02-28T05:30:54;1.00;99.90
17348;DHT22;8791;50.876;4.342;2023-02-28T05:33:20;1.10;99.90
17348;DHT22;8791;50.876;4.342;2023-02-28T05:35:47;1.10;99.90
17348;DHT22;8791;50.876;4.342;2023-02-28T05:38:14;1.30;99.90
17348;DHT22;8791;50.876;4.342;2023-02-28T05:40:41;1.40;99.90
17348;DHT22;8791;50.876;4.342;2023-02-28T05:43:10;1.40;99.90
17348;DHT22;8791;50.876;4.342;2023-02-28T05:45:38;1.20;99.90
17348;DHT22;8791;50.876;4.342;2023-02-28T05:48:07;1.20;99.90
17348;DHT22;8791;50.876;4.342;2023-02-28T05:50:34;1.40;99.90
17348;DHT22;8791;50.876;4.342;2023-02-28T05:53:01;1.30;99.90
17348;DHT22;8791;50.876;4.342;2023-02-28T05:55:28;1.30;99.90
17348;DHT22;8791;50.876;4.342;2023-02-28T05:57:55;1.50;99.90
17348;DHT22;8791;50.876;4.342;2023-02-28T06:00:22;1.40;99.90
17348;DHT22;8791;50.876;4.342;2023-02-28T06:02:49;1.30;99.90
17348;DHT22;8791;50.876;4.342;2023-02-28T06:05:18;1.30;99.90
17348;DHT22;8791;50.876;4.342;2023-02-28T06:07:45;1.40;99.90
17348;DHT22;8791;50.876;4.342;2023-02-28T06:10:13;1.50;99.90
17348;DHT22;8791;50.876;4.342;2023-02-28T06:12:40;1.70;99.90
17348;DHT22;8791;50.876;4.342;2023-02-28T06:15:10;1.80;99.90
17348;DHT22;8791;50.876;4.342;2023-02-28T06:17:38;1.60;99.90
17348;DHT22;8791;50.876;4.342;2023-02-28T06:20:06;1.60;99.90
17348;DHT22;8791;50.876;4.342;2023-02-28T06:22:35;1.50;99.90
17348;DHT22;8791;50.876;4.342;2023-02-28T06:25:02;1.60;99.90
17348;DHT22;8791;50.876;4.342;2023-02-28T06:27:30;1.60;99.90
17348;DHT22;8791;50.876;4.342;2023-02-28T06:29:57;1.50;99.90
17348;DHT22;8791;50.876;4.342;2023-02-28T06:32:24;1.50;99.90
17348;DHT22;8791;50.876;4.342;2023-02-28T06:34:51;1.50;99.90
17348;DHT22;8791;50.876;4.342;2023-02-28T06:37:18;1.50;99.90
17348;DHT22;8791;50.876;4.342;2023-02-28T06:39:47;1.60;99.90
17348;DHT22;8791;50.876;4.342;2023-02-28T06:42:14;1.80;99.90
17348;DHT22;8791;50.876;4.342;2023-02-28T06:44:40;1.70;99.90
17348;DHT22;8791;50.876;4.342;2023-02-28T06:47:08;1.80;99.90
17348;DHT22;8791;50.876;4.342;2023-02-28T06:49:35;1.70;99.90
17348;DHT22;8791;50.876;4.342;2023-02-28T06:52:02;1.70;99.90
17348;DHT22;8791;50.876;4.342;2023-02-28T06:54:29;1.70;99.90
17348;DHT22;8791;50.876;4.342;2023-02-28T06:56:58;1.80;99.90
17348;DHT22;8791;50.876;4.342;2023-02-28T06:59:25;1.70;99.90
17348;DHT22;8791;50.876;4.342;2023-02-28T07:01:52;1.70;99.90
17348;DHT22;8791;50.876;4.342;2023-02-28T07:04:27;1.70;99.90
17348;DHT22;8791;50.876;4.342;2023-02-28T07:06:56;1.90;99.90
17348;DHT22;8791;50.876;4.342;2023-02-28T07:09:23;1.90;99.90
17348;DHT22;8791;50.876;4.342;2023-02-28T07:11:49;2.10;99.90
17348;DHT22;8791;50.876;4.342;2023-02-28T07:14:18;1.90;99.90
17348;DHT22;8791;50.876;4.342;2023-02-28T07:16:44;1.70;99.90
17348;DHT22;8791;50.876;4.342;2023-02-28T07:19:11;1.70;99.90
17348;DHT22;8791;50.876;4.342;2023-02-28T07:21:38;1.90;99.90
17348;DHT22;8791;50.876;4.342;2023-02-28T07:24:06;2.00;99.90
17348;DHT22;8791;50.876;4.342;2023-02-28T07:26:32;1.80;99.90
17348;DHT22;8791;50.876;4.342;2023-02-28T07:29:00;1.80;99.90
17348;DHT22;8791;50.876;4.342;2023-02-28T07:31:29;1.70;99.90
17348;DHT22;8791;50.876;4.342;2023-02-28T07:33:55;1.70;99.90
17348;DHT22;8791;50.876;4.342;2023-02-28T07:36:22;1.80;99.90
17348;DHT22;8791;50.876;4.342;2023-02-28T07:38:49;1.80;99.90
17348;DHT22;8791;50.876;4.342;2023-02-28T07:41:17;2.00;99.90
17348;DHT22;8791;50.876;4.342;2023-02-28T07:43:44;2.20;99.90
17348;DHT22;8791;50.876;4.342;2023-02-28T07:46:13;2.20;99.90
17348;DHT22;8791;50.876;4.342;2023-02-28T07:48:43;2.40;99.90
17348;DHT22;8791;50.876;4.342;2023-02-28T07:51:10;2.40;99.90
17348;DHT22;8791;50.876;4.342;2023-02-28T07:53:37;2.40;99.90
17348;DHT22;8791;50.876;4.342;2023-02-28T07:56:05;2.50;99.90
17348;DHT22;8791;50.876;4.342;2023-02-28T07:58:32;2.50;99.90
17348;DHT22;8791;50.876;4.342;2023-02-28T08:01:05;2.70;99.90
17348;DHT22;8791;50.876;4.342;2023-02-28T08:03:32;2.90;99.90
17348;DHT22;8791;50.876;4.342;2023-02-28T08:06:00;2.80;99.90
17348;DHT22;8791;50.876;4.342;2023-02-28T08:08:27;2.80;99.90
17348;DHT22;8791;50.876;4.342;2023-02-28T08:10:58;2.80;99.90
17348;DHT22;8791;50.876;4.342;2023-02-28T08:13:25;2.90;99.90
17348;DHT22;8791;50.876;4.342;2023-02-28T08:15:53;3.10;99.90
17348;DHT22;8791;50.876;4.342;2023-02-28T08:18:20;3.10;99.90
17348;DHT22;8791;50.876;4.342;2023-02-28T08:20:47;3.10;99.90
17348;DHT22;8791;50.876;4.342;2023-02-28T08:23:15;3.10;99.90
17348;DHT22;8791;50.876;4.342;2023-02-28T08:25:42;3.10;99.90
17348;DHT22;8791;50.876;4.342;2023-02-28T08:28:09;3.20;99.90
17348;DHT22;8791;50.876;4.342;2023-02-28T08:30:36;3.40;99.90
17348;DHT22;8791;50.876;4.342;2023-02-28T08:33:06;3.60;99.90
17348;DHT22;8791;50.876;4.342;2023-02-28T08:35:35;3.80;99.90
17348;DHT22;8791;50.876;4.342;2023-02-28T08:38:02;3.90;99.90
17348;DHT22;8791;50.876;4.342;2023-02-28T08:40:30;3.80;99.90
17348;DHT22;8791;50.876;4.342;2023-02-28T08:42:57;3.70;99.90
17348;DHT22;8791;50.876;4.342;2023-02-28T08:45:25;3.70;99.90
17348;DHT22;8791;50.876;4.342;2023-02-28T08:47:51;3.60;99.90
17348;DHT22;8791;50.876;4.342;2023-02-28T08:50:20;3.50;99.90
17348;DHT22;8791;50.876;4.342;2023-02-28T08:52:47;3.30;99.90
17348;DHT22;8791;50.876;4.342;2023-02-28T08:55:14;3.20;99.90
17348;DHT22;8791;50.876;4.342;2023-02-28T08:57:42;3.00;99.90
17348;DHT22;8791;50.876;4.342;2023-02-28T09:00:10;3.00;99.90
17348;DHT22;8791;50.876;4.342;2023-02-28T09:02:39;3.10;99.90
17348;DHT22;8791;50.876;4.342;2023-02-28T09:05:09;3.10;99.90
17348;DHT22;8791;50.876;4.342;2023-02-28T09:07:36;3.00;99.90
17348;DHT22;8791;50.876;4.342;2023-02-28T09:10:04;2.90;99.90
17348;DHT22;8791;50.876;4.342;2023-02-28T09:12:33;2.90;99.90
17348;DHT22;8791;50.876;4.342;2023-02-28T09:15:02;2.90;99.90
17348;DHT22;8791;50.876;4.342;2023-02-28T09:17:29;2.90;99.90
17348;DHT22;8791;50.876;4.342;2023-02-28T09:19:56;2.90;99.90
17348;DHT22;8791;50.876;4.342;2023-02-28T09:22:23;3.00;99.90
17348;DHT22;8791;50.876;4.342;2023-02-28T09:24:50;3.20;99.90
17348;DHT22;8791;50.876;4.342;2023-02-28T09:27:17;3.20;99.90
17348;DHT22;8791;50.876;4.342;2023-02-28T09:29:44;3.10;99.90
17348;DHT22;8791;50.876;4.342;2023-02-28T09:32:12;3.00;99.90
17348;DHT22;8791;50.876;4.342;2023-02-28T09:34:39;3.00;99.90
17348;DHT22;8791;50.876;4.342;2023-02-28T09:37:06;3.00;99.90
17348;DHT22;8791;50.876;4.342;2023-02-28T09:39:33;3.00;99.90
17348;DHT22;8791;50.876;4.342;2023-02-28T09:42:00;3.10;99.90
17348;DHT22;8791;50.876;4.342;2023-02-28T09:44:31;3.10;99.90
17348;DHT22;8791;50.876;4.342;2023-02-28T09:47:04;3.00;99.90
17348;DHT22;8791;50.876;4.342;2023-02-28T09:49:37;3.10;99.90
17348;DHT22;8791;50.876;4.342;2023-02-28T09:52:09;3.30;99.90
17348;DHT22;8791;50.876;4.342;2023-02-28T09:54:36;3.30;99.90
17348;DHT22;8791;50.876;4.342;2023-02-28T09:57:08;3.20;99.90
17348;DHT22;8791;50.876;4.342;2023-02-28T10:00:04;3.20;99.90
17348;DHT22;8791;50.876;4.342;2023-02-28T10:02:49;3.10;99.90
17348;DHT22;8791;50.876;4.342;2023-02-28T10:05:23;3.10;99.90
17348;DHT22;8791;50.876;4.342;2023-02-28T10:08:05;3.00;99.90
17348;DHT22;8791;50.876;4.342;2023-02-28T10:10:39;3.10;99.90
17348;DHT22;8791;50.876;4.342;2023-02-28T10:13:17;3.10;99.90
17348;DHT22;8791;50.876;4.342;2023-02-28T10:15:50;3.20;99.90
17348;DHT22;8791;50.876;4.342;2023-02-28T10:18:25;3.20;99.90
17348;DHT22;8791;50.876;4.342;2023-02-28T10:20:54;3.30;99.90
17348;DHT22;8791;50.876;4.342;2023-02-28T10:23:26;3.40;99.90
17348;DHT22;8791;50.876;4.342;2023-02-28T10:25:58;3.50;99.90
17348;DHT22;8791;50.876;4.342;2023-02-28T10:28:32;3.70;99.90
17348;DHT22;8791;50.876;4.342;2023-02-28T10:30:59;3.60;99.90
17348;DHT22;8791;50.876;4.342;2023-02-28T10:33:29;3.60;99.90
17348;DHT22;8791;50.876;4.342;2023-02-28T10:35:58;3.60;99.90
17348;DHT22;8791;50.876;4.342;2023-02-28T10:38:27;3.60;99.90
17348;DHT22;8791;50.876;4.342;2023-02-28T10:41:05;3.60;99.90
17348;DHT22;8791;50.876;4.342;2023-02-28T10:43:32;3.60;99.90
17348;DHT22;8791;50.876;4.342;2023-02-28T10:46:02;3.50;99.90
17348;DHT22;8791;50.876;4.342;2023-02-28T10:48:32;3.50;99.90
17348;DHT22;8791;50.876;4.342;2023-02-28T10:51:02;3.60;99.90
17348;DHT22;8791;50.876;4.342;2023-02-28T10:56:16;3.90;99.90
17348;DHT22;8791;50.876;4.342;2023-02-28T10:59:02;4.00;99.90
17348;DHT22;8791;50.876;4.342;2023-02-28T11:01:37;4.20;99.90
17348;DHT22;8791;50.876;4.342;2023-02-28T11:04:17;4.10;99.90
17348;DHT22;8791;50.876;4.342;2023-02-28T11:06:46;4.00;99.90
17348;DHT22;8791;50.876;4.342;2023-02-28T11:09:19;4.00;99.90
17348;DHT22;8791;50.876;4.342;2023-02-28T11:11:47;4.10;99.90
17348;DHT22;8791;50.876;4.342;2023-02-28T11:14:20;4.20;99.90
17348;DHT22;8791;50.876;4.342;2023-02-28T11:16:48;4.30;99.90
17348;DHT22;8791;50.876;4.342;2023-02-28T11:19:19;4.20;99.90
17348;DHT22;8791;50.876;4.342;2023-02-28T11:21:53;4.20;99.90
17348;DHT22;8791;50.876;4.342;2023-02-28T11:24:24;4.20;99.90
17348;DHT22;8791;50.876;4.342;2023-02-28T11:26:52;4.30;99.90
17348;DHT22;8791;50.876;4.342;2023-02-28T11:29:21;4.40;99.90
17348;DHT22;8791;50.876;4.342;2023-02-28T11:32:03;4.30;99.90
17348;DHT22;8791;50.876;4.342;2023-02-28T11:34:31;4.50;99.90
17348;DHT22;8791;50.876;4.342;2023-02-28T11:37:01;4.50;99.90
17348;DHT22;8791;50.876;4.342;2023-02-28T11:39:31;4.40;99.90
17348;DHT22;8791;50.876;4.342;2023-02-28T11:42:09;4.30;99.90
17348;DHT22;8791;50.876;4.342;2023-02-28T11:44:48;4.20;99.90
17348;DHT22;8791;50.876;4.342;2023-02-28T11:47:29;4.10;99.90
17348;DHT22;8791;50.876;4.342;2023-02-28T11:50:08;4.10;99.90
17348;DHT22;8791;50.876;4.342;2023-02-28T11:52:45;4.10;99.90
17348;DHT22;8791;50.876;4.342;2023-02-28T11:55:18;4.20;99.90
17348;DHT22;8791;50.876;4.342;2023-02-28T11:58:16;4.30;99.90
17348;DHT22;8791;50.876;4.342;2023-02-28T12:03:45;4.50;99.90
17348;DHT22;8791;50.876;4.342;2023-02-28T12:06:23;4.60;99.90
17348;DHT22;8791;50.876;4.342;2023-02-28T12:09:02;4.70;99.90
17348;DHT22;8791;50.876;4.342;2023-02-28T12:11:40;4.60;99.90
17348;DHT22;8791;50.876;4.342;2023-02-28T12:14:25;4.50;99.90
17348;DHT22;8791;50.876;4.342;2023-02-28T12:17:03;4.30;99.90
17348;DHT22;8791;50.876;4.342;2023-02-28T12:19:40;4.30;99.90
17348;DHT22;8791;50.876;4.342;2023-02-28T12:22:20;4.40;99.90
17348;DHT22;8791;50.876;4.342;2023-02-28T12:25:20;4.60;99.90
17348;DHT22;8791;50.876;4.342;2023-02-28T12:27:49;4.80;99.90
17348;DHT22;8791;50.876;4.342;2023-02-28T12:30:22;4.70;99.90
17348;DHT22;8791;50.876;4.342;2023-02-28T12:32:54;4.70;99.90
17348;DHT22;8791;50.876;4.342;2023-02-28T12:35:24;4.80;99.90
17348;DHT22;8791;50.876;4.342;2023-02-28T12:37:56;4.80;99.90
17348;DHT22;8791;50.876;4.342;2023-02-28T12:40:28;4.80;99.90
17348;DHT22;8791;50.876;4.342;2023-02-28T12:43:02;4.70;99.90
17348;DHT22;8791;50.876;4.342;2023-02-28T12:45:39;4.90;99.90
17348;DHT22;8791;50.876;4.342;2023-02-28T12:48:09;5.00;99.90
17348;DHT22;8791;50.876;4.342;2023-02-28T12:50:40;5.00;99.90
17348;DHT22;8791;50.876;4.342;2023-02-28T12:53:10;5.00;99.90
17348;DHT22;8791;50.876;4.342;2023-02-28T12:55:42;4.90;99.90
17348;DHT22;8791;50.876;4.342;2023-02-28T12:58:15;4.90;99.90
17348;DHT22;8791;50.876;4.342;2023-02-28T13:04:14;5.30;99.90
17348;DHT22;8791;50.876;4.342;2023-02-28T13:06:58;5.10;99.90
17348;DHT22;8791;50.876;4.342;2023-02-28T13:09:26;4.80;99.90
17348;DHT22;8791;50.876;4.342;2023-02-28T13:11:58;4.80;99.90
17348;DHT22;8791;50.876;4.342;2023-02-28T13:14:27;4.80;99.90
17348;DHT22;8791;50.876;4.342;2023-02-28T13:16:59;4.80;99.90
17348;DHT22;8791;50.876;4.342;2023-02-28T13:19:28;5.00;99.90
17348;DHT22;8791;50.876;4.342;2023-02-28T13:21:57;5.00;99.90
17348;DHT22;8791;50.876;4.342;2023-02-28T13:24:41;4.90;99.90
17348;DHT22;8791;50.876;4.342;2023-02-28T13:27:36;5.00;99.90
17348;DHT22;8791;50.876;4.342;2023-02-28T13:33:22;5.20;98.70
17348;DHT22;8791;50.876;4.342;2023-02-28T13:36:07;5.00;98.60
17348;DHT22;8791;50.876;4.342;2023-02-28T13:38:38;5.00;99.00
17348;DHT22;8791;50.876;4.342;2023-02-28T13:41:43;5.00;98.90
17348;DHT22;8791;50.876;4.342;2023-02-28T13:44:13;5.00;98.40
17348;DHT22;8791;50.876;4.342;2023-02-28T13:49:44;5.10;98.90
17348;DHT22;8791;50.876;4.342;2023-02-28T13:52:16;5.10;98.00
17348;DHT22;8791;50.876;4.342;2023-02-28T13:57:52;5.20;98.10
17348;DHT22;8791;50.876;4.342;2023-02-28T14:00:31;5.40;97.60
17348;DHT22;8791;50.876;4.342;2023-02-28T14:03:23;5.50;97.60
17348;DHT22;8791;50.876;4.342;2023-02-28T14:06:10;5.50;97.00
17348;DHT22;8791;50.876;4.342;2023-02-28T14:08:47;5.50;97.30
17348;DHT22;8791;50.876;4.342;2023-02-28T14:11:27;5.50;97.30
17348;DHT22;8791;50.876;4.342;2023-02-28T14:13:54;5.40;96.70
17348;DHT22;8791;50.876;4.342;2023-02-28T14:16:24;5.30;96.70
17348;DHT22;8791;50.876;4.342;2023-02-28T14:18:57;5.30;97.00
17348;DHT22;8791;50.876;4.342;2023-02-28T14:21:27;5.30;97.20
17348;DHT22;8791;50.876;4.342;2023-02-28T14:24:21;5.30;97.10
17348;DHT22;8791;50.876;4.342;2023-02-28T14:27:15;5.40;97.20
17348;DHT22;8791;50.876;4.342;2023-02-28T14:32:46;5.40;97.10
17348;DHT22;8791;50.876;4.342;2023-02-28T14:35:22;5.30;97.80
17348;DHT22;8791;50.876;4.342;2023-02-28T14:37:56;5.40;97.70
17348;DHT22;8791;50.876;4.342;2023-02-28T14:40:27;5.40;96.80
17348;DHT22;8791;50.876;4.342;2023-02-28T14:42:57;5.20;96.20
17348;DHT22;8791;50.876;4.342;2023-02-28T14:45:27;4.90;96.60
17348;DHT22;8791;50.876;4.342;2023-02-28T14:47:57;4.90;97.10
17348;DHT22;8791;50.876;4.342;2023-02-28T14:50:34;5.00;97.40
17348;DHT22;8791;50.876;4.342;2023-02-28T14:53:01;5.10;97.80
17348;DHT22;8791;50.876;4.342;2023-02-28T14:55:30;5.30;97.40
17348;DHT22;8791;50.876;4.342;2023-02-28T14:57:59;5.30;97.10
17348;DHT22;8791;50.876;4.342;2023-02-28T15:00:29;5.20;97.50
17348;DHT22;8791;50.876;4.342;2023-02-28T15:02:59;5.10;97.50
17348;DHT22;8791;50.876;4.342;2023-02-28T15:05:29;5.00;97.60
17348;DHT22;8791;50.876;4.342;2023-02-28T15:08:10;4.90;97.50
17348;DHT22;8791;50.876;4.342;2023-02-28T15:10:38;5.00;98.10
17348;DHT22;8791;50.876;4.342;2023-02-28T15:13:07;5.00;98.50
17348;DHT22;8791;50.876;4.342;2023-02-28T15:15:45;5.00;98.30
17348;DHT22;8791;50.876;4.342;2023-02-28T15:18:23;5.10;98.80
17348;DHT22;8791;50.876;4.342;2023-02-28T15:20:53;5.20;99.00
17348;DHT22;8791;50.876;4.342;2023-02-28T15:23:21;5.20;98.70
17348;DHT22;8791;50.876;4.342;2023-02-28T15:25:49;5.10;98.90
17348;DHT22;8791;50.876;4.342;2023-02-28T15:28:19;5.00;99.40
17348;DHT22;8791;50.876;4.342;2023-02-28T15:30:56;5.10;99.80
17348;DHT22;8791;50.876;4.342;2023-02-28T15:33:25;5.10;99.90
17348;DHT22;8791;50.876;4.342;2023-02-28T15:36:05;5.10;99.90
17348;DHT22;8791;50.876;4.342;2023-02-28T15:38:34;5.20;99.90
17348;DHT22;8791;50.876;4.342;2023-02-28T15:41:02;5.20;99.90
17348;DHT22;8791;50.876;4.342;2023-02-28T15:43:36;5.10;99.90
17348;DHT22;8791;50.876;4.342;2023-02-28T15:46:05;5.20;99.90
17348;DHT22;8791;50.876;4.342;2023-02-28T15:48:36;5.30;99.90
17348;DHT22;8791;50.876;4.342;2023-02-28T15:51:07;5.20;99.70
17348;DHT22;8791;50.876;4.342;2023-02-28T15:53:37;5.20;99.90
17348;DHT22;8791;50.876;4.342;2023-02-28T15:56:17;5.20;99.90
17348;DHT22;8791;50.876;4.342;2023-02-28T15:58:45;5.20;99.90
17348;DHT22;8791;50.876;4.342;2023-02-28T16:01:23;5.10;99.90
17348;DHT22;8791;50.876;4.342;2023-02-28T16:03:55;5.20;99.90
17348;DHT22;8791;50.876;4.342;2023-02-28T16:06:37;5.20;99.90
17348;DHT22;8791;50.876;4.342;2023-02-28T16:09:06;5.20;99.90
17348;DHT22;8791;50.876;4.342;2023-02-28T16:11:36;5.10;99.90
17348;DHT22;8791;50.876;4.342;2023-02-28T16:14:05;5.10;99.90
17348;DHT22;8791;50.876;4.342;2023-02-28T16:16:32;5.20;99.90
17348;DHT22;8791;50.876;4.342;2023-02-28T16:19:01;5.20;99.90
17348;DHT22;8791;50.876;4.342;2023-02-28T16:21:29;5.20;99.90
17348;DHT22;8791;50.876;4.342;2023-02-28T16:23:56;5.20;99.90
17348;DHT22;8791;50.876;4.342;2023-02-28T16:26:24;5.10;99.90
17348;DHT22;8791;50.876;4.342;2023-02-28T16:28:53;5.00;99.90
17348;DHT22;8791;50.876;4.342;2023-02-28T16:31:20;5.10;99.90
17348;DHT22;8791;50.876;4.342;2023-02-28T16:33:51;5.10;99.90
17348;DHT22;8791;50.876;4.342;2023-02-28T16:36:21;5.20;99.90
17348;DHT22;8791;50.876;4.342;2023-02-28T16:38:48;5.00;99.90
17348;DHT22;8791;50.876;4.342;2023-02-28T16:41:18;4.90;99.90
17348;DHT22;8791;50.876;4.342;2023-02-28T16:43:48;4.90;99.90
17348;DHT22;8791;50.876;4.342;2023-02-28T16:46:16;4.80;99.90
17348;DHT22;8791;50.876;4.342;2023-02-28T16:48:46;4.90;99.90
17348;DHT22;8791;50.876;4.342;2023-02-28T16:51:17;4.90;99.90
17348;DHT22;8791;50.876;4.342;2023-02-28T16:53:45;5.00;99.90